Time;durP1;ratioP1;P1;durP2;ratioP2;P2;SDS_P1;SDS_P2;PMS_P1;PMS_P2;Temp;Humidity;BMP_temperature;BMP_pressure;BME280_temperature;BME280_humidity;BME280_pressure;Samples;Min_cycle;Max_cycle;Signal;HPM_P1;HPM_P2
2022/11/17 00:00:19;;;;;;;19.43;13.67;;;8.00;99.90;;;;;;5091448;28;20353;-79
2022/11/17 00:02:46;;;;;;;21.63;14.00;;;7.90;99.90;;;;;;5092757;28;20183;-82
2022/11/17 00:05:12;;;;;;;20.73;13.60;;;7.80;99.90;;;;;;5091478;28;20655;-81
2022/11/17 00:07:38;;;;;;;20.73;13.67;;;7.70;99.90;;;;;;5092556;28;20189;-80
2022/11/17 00:10:05;;;;;;;21.90;13.07;;;7.60;99.90;;;;;;5092696;28;20529;-81
2022/11/17 00:15:15;;;;;;;21.17;12.77;;;7.60;99.90;;;;;;5092709;28;20241;-79
2022/11/17 00:17:41;;;;;;;17.80;12.60;;;7.60;99.90;;;;;;5091587;28;20672;-79
2022/11/17 00:22:54;;;;;;;19.13;12.83;;;7.60;99.90;;;;;;5092620;28;20167;-78
2022/11/17 00:25:19;;;;;;;18.47;12.77;;;7.70;99.90;;;;;;5095486;28;20169;-79
2022/11/17 00:27:45;;;;;;;17.80;12.07;;;7.80;99.90;;;;;;5096294;28;20176;-80
2022/11/17 00:34:03;;;;;;;18.00;12.13;;;7.70;99.90;;;;;;5096099;28;20175;-79
2022/11/17 00:35:53;;;;;;;20.40;13.77;;;7.80;99.90;;;;;;5096114;28;20181;-80
2022/11/17 00:38:19;;;;;;;17.43;12.53;;;7.90;99.90;;;;;;5111181;28;20261;-78
2022/11/17 00:40:45;;;;;;;18.70;12.57;;;7.90;99.90;;;;;;5116500;28;20660;-79
2022/11/17 00:43:11;;;;;;;22.27;12.73;;;7.90;99.90;;;;;;5097991;28;20201;-79
2022/11/17 00:45:37;;;;;;;17.83;12.10;;;7.90;99.90;;;;;;5116250;28;20166;-79
2022/11/17 00:48:03;;;;;;;18.03;12.27;;;7.90;99.90;;;;;;5116227;28;20174;-80
2022/11/17 00:50:29;;;;;;;16.50;12.13;;;8.00;99.90;;;;;;5116616;28;20848;-80
2022/11/17 00:52:55;;;;;;;20.20;12.37;;;8.00;99.90;;;;;;5116343;28;20252;-82
2022/11/17 00:55:21;;;;;;;20.37;12.97;;;8.00;99.90;;;;;;5116824;28;20191;-80
2022/11/17 00:57:47;;;;;;;16.97;11.93;;;8.00;99.90;;;;;;5116050;28;20659;-80
2022/11/17 01:00:13;;;;;;;18.83;12.07;;;8.10;99.90;;;;;;5116070;28;20245;-81
2022/11/17 01:02:39;;;;;;;19.30;12.43;;;8.10;99.90;;;;;;5097695;28;20214;-79
2022/11/17 01:05:05;;;;;;;16.83;12.40;;;8.20;99.90;;;;;;5117852;28;20189;-80
2022/11/17 01:07:31;;;;;;;16.70;11.60;;;8.30;99.90;;;;;;5100826;28;20177;-80
2022/11/17 01:09:57;;;;;;;20.50;12.83;;;8.30;99.90;;;;;;5116000;28;20166;-81
2022/11/17 01:12:22;;;;;;;16.27;11.33;;;8.30;99.90;;;;;;5115797;28;20658;-79
2022/11/17 01:14:48;;;;;;;19.53;11.80;;;8.30;99.90;;;;;;5115866;28;20274;-79
2022/11/17 01:17:14;;;;;;;17.20;12.00;;;8.30;99.90;;;;;;5118374;28;20194;-81
2022/11/17 01:19:40;;;;;;;15.73;11.07;;;8.20;99.90;;;;;;5116649;28;20295;-80
2022/11/17 01:22:06;;;;;;;15.90;10.53;;;8.20;99.90;;;;;;5115920;28;20172;-79
2022/11/17 01:24:31;;;;;;;17.13;11.43;;;8.20;99.90;;;;;;5115704;28;20182;-79
2022/11/17 01:26:57;;;;;;;16.07;11.40;;;8.20;99.90;;;;;;5115877;28;20262;-80
2022/11/17 01:29:23;;;;;;;16.40;11.27;;;8.20;99.90;;;;;;5118094;28;20197;-80
2022/11/17 01:31:50;;;;;;;15.23;10.37;;;8.30;99.90;;;;;;5099045;28;20265;-80
2022/11/17 01:34:16;;;;;;;17.10;11.10;;;8.30;99.90;;;;;;5115638;28;20166;-78
2022/11/17 01:39:29;;;;;;;14.00;10.87;;;8.10;99.90;;;;;;5115763;28;20533;-82
2022/11/17 01:41:56;;;;;;;15.77;10.17;;;8.10;99.90;;;;;;5115441;28;20170;-82
2022/11/17 01:44:40;;;;;;;16.90;11.67;;;8.20;99.90;;;;;;5115383;28;20167;-81
2022/11/17 01:47:32;;;;;;;16.40;11.37;;;8.30;99.90;;;;;;5115308;28;20224;-81
2022/11/17 01:50:07;;;;;;;16.27;10.63;;;8.30;99.90;;;;;;5115288;28;20208;-83
2022/11/17 01:52:35;;;;;;;16.33;11.47;;;8.30;99.90;;;;;;5115386;28;20253;-82
2022/11/17 01:55:02;;;;;;;16.63;11.20;;;8.40;99.90;;;;;;5115180;28;20161;-77
2022/11/17 01:57:40;;;;;;;16.27;11.47;;;8.40;99.90;;;;;;5115047;28;20198;-79
2022/11/17 02:00:08;;;;;;;16.97;10.87;;;8.40;99.90;;;;;;5115357;28;20576;-79
2022/11/17 02:02:35;;;;;;;16.37;11.20;;;8.30;99.90;;;;;;5096575;28;20221;-78
2022/11/17 02:05:09;;;;;;;14.10;10.73;;;8.20;99.90;;;;;;5114805;28;20668;-80
2022/11/17 02:07:38;;;;;;;16.57;11.03;;;8.20;99.90;;;;;;5096641;28;20166;-81
2022/11/17 02:10:05;;;;;;;15.07;10.70;;;8.20;99.90;;;;;;5096629;28;20172;-79
2022/11/17 02:12:34;;;;;;;15.27;10.93;;;8.10;99.90;;;;;;5096297;28;20657;-78
2022/11/17 02:15:01;;;;;;;13.83;10.60;;;8.20;99.90;;;;;;5096403;28;20204;-80
2022/11/17 02:17:37;;;;;;;15.60;10.73;;;8.10;99.90;;;;;;5114518;28;20205;-81
2022/11/17 02:20:08;;;;;;;17.60;10.80;;;8.10;99.90;;;;;;5096226;28;20587;-79
2022/11/17 02:22:58;;;;;;;15.57;11.20;;;8.00;99.90;;;;;;5096144;28;20170;-81
2022/11/17 02:26:04;;;;;;;15.90;10.43;;;8.00;99.90;;;;;;5114423;28;20165;-81
2022/11/17 02:28:46;;;;;;;15.07;10.13;;;7.90;99.90;;;;;;5049762;28;20180;-84
2022/11/17 02:31:25;;;;;;;15.67;11.07;;;7.80;99.90;;;;;;5114400;28;20169;-80
2022/11/17 02:33:56;;;;;;;17.30;11.10;;;7.90;99.90;;;;;;5119536;28;20196;-80
2022/11/17 02:36:53;;;;;;;17.43;11.83;;;8.00;99.90;;;;;;5114364;28;20172;-80
2022/11/17 02:39:30;;;;;;;17.33;11.87;;;8.10;99.90;;;;;;5114447;28;20191;-80
2022/11/17 02:42:07;;;;;;;15.67;10.53;;;8.00;99.90;;;;;;5115145;28;20191;-80
2022/11/17 02:44:56;;;;;;;16.87;11.40;;;8.00;99.90;;;;;;5098315;28;20176;-81
2022/11/17 02:47:26;;;;;;;17.17;11.10;;;8.00;99.90;;;;;;5111700;28;20194;-80
2022/11/17 02:49:59;;;;;;;17.40;11.87;;;8.20;99.90;;;;;;5113031;28;20200;-80
2022/11/17 02:52:26;;;;;;;18.57;11.80;;;8.20;99.90;;;;;;5112325;28;20197;-82
2022/11/17 02:54:52;;;;;;;17.43;12.10;;;8.20;99.90;;;;;;5112647;28;20175;-79
2022/11/17 02:57:34;;;;;;;15.90;11.17;;;8.20;99.90;;;;;;5113047;28;20307;-79
2022/11/17 03:00:06;;;;;;;18.77;12.10;;;8.20;99.90;;;;;;5114157;28;20167;-82
2022/11/17 03:03:27;;;;;;;16.37;11.77;;;8.20;99.90;;;;;;5112406;28;20547;-80
2022/11/17 03:06:26;;;;;;;16.47;10.73;;;8.10;99.90;;;;;;5090964;28;20198;-81
2022/11/17 03:09:38;;;;;;;19.00;12.10;;;8.20;99.90;;;;;;5112885;28;20189;-81
2022/11/17 03:12:18;;;;;;;16.97;11.33;;;8.20;99.90;;;;;;5055269;28;20313;-79
2022/11/17 03:14:59;;;;;;;13.93;10.50;;;8.30;99.90;;;;;;5112837;28;20183;-83
2022/11/17 03:17:56;;;;;;;14.97;10.93;;;8.20;99.90;;;;;;5094934;28;20211;-81
2022/11/17 03:20:30;;;;;;;16.73;10.07;;;8.20;99.90;;;;;;5112629;28;20260;-78
2022/11/17 03:23:01;;;;;;;13.60;10.33;;;8.20;99.90;;;;;;5112922;28;20165;-79
2022/11/17 03:25:31;;;;;;;15.60;10.73;;;8.10;99.90;;;;;;5112672;28;20178;-81
2022/11/17 03:28:03;;;;;;;15.50;10.77;;;8.00;99.90;;;;;;5112517;28;20180;-79
2022/11/17 03:30:29;;;;;;;14.37;10.40;;;8.00;99.90;;;;;;5112820;28;20175;-80
2022/11/17 03:33:03;;;;;;;14.43;10.90;;;8.00;99.90;;;;;;5112238;28;20183;-79
2022/11/17 03:35:32;;;;;;;17.63;11.20;;;8.00;99.90;;;;;;5112677;28;20199;-79
2022/11/17 03:38:14;;;;;;;16.53;11.33;;;8.10;99.90;;;;;;5112389;28;20237;-78
2022/11/17 03:40:45;;;;;;;16.33;10.70;;;8.10;99.90;;;;;;5112659;28;20177;-80
2022/11/17 03:43:15;;;;;;;14.23;10.80;;;8.20;99.90;;;;;;5112675;28;20176;-81
2022/11/17 03:45:47;;;;;;;14.27;10.83;;;8.20;99.90;;;;;;5094347;28;20180;-82
2022/11/17 03:48:21;;;;;;;15.00;10.40;;;8.20;99.90;;;;;;5113057;28;20171;-80
2022/11/17 03:51:06;;;;;;;17.07;10.67;;;8.10;99.90;;;;;;5112862;28;20196;-79
2022/11/17 03:53:33;;;;;;;12.30;8.87;;;8.10;99.90;;;;;;5113163;28;20156;-79
2022/11/17 03:56:07;;;;;;;14.30;8.93;;;7.90;99.90;;;;;;5113417;28;20179;-79
2022/11/17 03:58:39;;;;;;;13.17;9.47;;;8.00;99.90;;;;;;5115117;28;20192;-79
2022/11/17 04:01:05;;;;;;;11.40;8.67;;;7.90;99.90;;;;;;5100259;28;20181;-80
2022/11/17 04:03:32;;;;;;;11.93;8.07;;;7.90;99.90;;;;;;5117487;28;20176;-79
2022/11/17 04:05:58;;;;;;;10.77;8.53;;;7.90;99.90;;;;;;5116680;28;20169;-80
2022/11/17 04:08:28;;;;;;;12.07;8.93;;;7.90;99.90;;;;;;5115838;28;20689;-80
2022/11/17 04:16:23;;;;;;;11.23;8.00;;;7.90;99.90;;;;;;5117142;28;20171;-78
2022/11/17 04:18:50;;;;;;;13.23;8.43;;;7.80;99.90;;;;;;5116532;28;20606;-79
2022/11/17 04:21:16;;;;;;;11.07;8.10;;;7.80;99.90;;;;;;5096379;28;20548;-80
2022/11/17 04:23:42;;;;;;;10.67;8.60;;;7.90;99.90;;;;;;5097968;28;20193;-80
2022/11/17 04:28:54;;;;;;;10.03;8.73;;;8.00;99.90;;;;;;5116245;28;20165;-80
2022/11/17 04:31:24;;;;;;;10.63;8.43;;;8.00;99.90;;;;;;5116371;28;20166;-79
2022/11/17 04:34:02;;;;;;;10.07;8.13;;;8.00;99.90;;;;;;5115967;28;20166;-79
2022/11/17 04:36:31;;;;;;;13.13;8.20;;;7.90;99.90;;;;;;5117564;28;20174;-82
2022/11/17 04:38:58;;;;;;;13.60;9.07;;;7.80;99.90;;;;;;5116379;28;20254;-80
2022/11/17 04:44:13;;;;;;;12.70;8.73;;;7.90;99.90;;;;;;5116764;28;20169;-81
2022/11/17 04:46:40;;;;;;;10.87;8.47;;;7.80;99.90;;;;;;5116098;28;20621;-81
2022/11/17 04:49:07;;;;;;;11.87;8.73;;;7.80;99.90;;;;;;5097978;28;20688;-81
2022/11/17 04:51:34;;;;;;;13.57;8.97;;;7.70;99.90;;;;;;5116432;28;20200;-80
2022/11/17 04:54:01;;;;;;;10.67;8.30;;;7.80;99.90;;;;;;5116267;28;20247;-81
2022/11/17 04:56:28;;;;;;;11.23;8.67;;;7.80;99.90;;;;;;5116454;28;20173;-79
2022/11/17 04:58:54;;;;;;;11.93;9.03;;;7.80;99.90;;;;;;5115999;28;20208;-79
2022/11/17 05:01:21;;;;;;;13.57;9.37;;;8.00;99.90;;;;;;5115954;28;20169;-79
2022/11/17 05:03:49;;;;;;;12.93;9.53;;;8.00;99.90;;;;;;5115950;28;20227;-79
2022/11/17 05:06:16;;;;;;;12.27;9.10;;;7.90;99.90;;;;;;5115779;28;20169;-80
2022/11/17 05:08:43;;;;;;;17.80;10.07;;;7.90;99.90;;;;;;5116033;28;20231;-80
2022/11/17 05:13:55;;;;;;;11.47;9.13;;;7.90;99.90;;;;;;5117449;28;20157;-80
2022/11/17 05:19:07;;;;;;;12.43;9.00;;;7.90;99.90;;;;;;5115702;28;20274;-80
2022/11/17 05:21:34;;;;;;;11.47;8.50;;;7.90;99.90;;;;;;5097244;28;20183;-81
2022/11/17 05:24:00;;;;;;;13.63;10.10;;;7.90;99.90;;;;;;5097235;28;20174;-79
2022/11/17 05:26:28;;;;;;;12.00;9.17;;;7.80;99.90;;;;;;5115603;28;20576;-79
2022/11/17 05:28:56;;;;;;;13.37;9.17;;;7.90;99.90;;;;;;5097239;28;20170;-81
2022/11/17 05:31:23;;;;;;;11.43;9.13;;;7.80;99.90;;;;;;5117196;28;20173;-80
2022/11/17 05:33:49;;;;;;;13.23;9.10;;;7.90;99.90;;;;;;5098573;28;20173;-80
2022/11/17 05:36:15;;;;;;;13.07;9.23;;;7.90;99.90;;;;;;5115726;28;20170;-80
2022/11/17 05:38:41;;;;;;;15.60;10.00;;;7.90;99.90;;;;;;5115352;28;20228;-80
2022/11/17 05:41:07;;;;;;;15.77;10.20;;;7.90;99.90;;;;;;5118415;28;20170;-82
2022/11/17 05:43:33;;;;;;;14.70;10.63;;;7.90;99.90;;;;;;5119186;28;20244;-82
2022/11/17 05:45:59;;;;;;;16.67;10.93;;;7.80;99.90;;;;;;5100115;28;20170;-80
2022/11/17 05:48:25;;;;;;;17.00;11.40;;;7.80;99.90;;;;;;5115288;28;20178;-81
2022/11/17 05:50:52;;;;;;;17.87;11.40;;;7.70;99.90;;;;;;5115105;28;20169;-80
2022/11/17 05:53:19;;;;;;;16.90;10.67;;;7.70;99.90;;;;;;5115119;28;20270;-82
2022/11/17 05:55:45;;;;;;;17.23;11.63;;;7.70;99.90;;;;;;5114967;28;20175;-81
2022/11/17 05:58:25;;;;;;;15.97;11.20;;;7.70;99.90;;;;;;5114820;28;20205;-79
2022/11/17 06:00:52;;;;;;;16.13;10.73;;;7.60;99.90;;;;;;5114808;28;20170;-80
2022/11/17 06:03:23;;;;;;;17.93;11.13;;;7.60;99.90;;;;;;5114898;28;20642;-79
2022/11/17 06:05:50;;;;;;;15.70;10.53;;;7.70;99.90;;;;;;5114781;28;20173;-81
2022/11/17 06:08:16;;;;;;;18.07;12.07;;;7.70;99.90;;;;;;5114545;28;20162;-79
2022/11/17 06:10:42;;;;;;;17.07;11.40;;;7.80;99.90;;;;;;5114475;28;20262;-81
2022/11/17 06:13:08;;;;;;;17.23;11.50;;;7.80;99.90;;;;;;5096086;28;20252;-81
2022/11/17 06:15:34;;;;;;;18.70;11.77;;;7.80;99.90;;;;;;5096275;28;20188;-81
2022/11/17 06:18:14;;;;;;;20.03;12.30;;;7.80;99.90;;;;;;5114397;28;20250;-80
2022/11/17 06:20:45;;;;;;;19.03;11.60;;;7.90;99.90;;;;;;5114297;28;20214;-79
2022/11/17 06:23:37;;;;;;;;;;;;;;;;;;;;;
2022/11/17 06:26:05;;;;;;;15.50;10.77;;;7.90;99.90;;;;;;5120033;28;20244;-80
2022/11/17 06:28:32;;;;;;;16.07;10.77;;;7.90;99.90;;;;;;5115001;28;20163;-79
2022/11/17 06:30:59;;;;;;;17.47;11.63;;;7.90;99.90;;;;;;5114277;28;20721;-81
2022/11/17 06:33:27;;;;;;;20.40;12.17;;;7.90;99.90;;;;;;5114435;28;20202;-80
2022/11/17 06:35:53;;;;;;;17.43;11.50;;;7.90;99.90;;;;;;5115213;28;20169;-80
2022/11/17 06:38:19;;;;;;;16.80;12.10;;;7.80;99.90;;;;;;5122509;28;20273;-81
2022/11/17 06:40:45;;;;;;;17.50;11.30;;;7.80;99.90;;;;;;5103595;28;20183;-80
2022/11/17 06:43:11;;;;;;;14.73;11.23;;;7.80;99.90;;;;;;5098554;28;20331;-80
2022/11/17 06:45:42;;;;;;;16.63;10.77;;;8.00;99.90;;;;;;5114314;28;20161;-79
2022/11/17 06:48:10;;;;;;;16.60;10.77;;;8.00;99.90;;;;;;5114468;28;20517;-79
2022/11/17 06:50:36;;;;;;;16.10;11.67;;;8.00;99.90;;;;;;5113945;28;20172;-78
2022/11/17 06:53:06;;;;;;;17.37;11.20;;;8.10;99.90;;;;;;5113815;28;20162;-78
2022/11/17 06:55:41;;;;;;;15.40;10.47;;;8.10;99.90;;;;;;5114844;28;20174;-80
2022/11/17 06:58:11;;;;;;;15.23;11.13;;;8.20;99.90;;;;;;5095915;28;20778;-82
2022/11/17 07:00:37;;;;;;;20.30;11.17;;;8.20;99.90;;;;;;5117387;28;20176;-80
2022/11/17 07:03:06;;;;;;;18.53;11.40;;;8.30;99.90;;;;;;5095717;28;20224;-81
2022/11/17 07:05:33;;;;;;;14.87;11.00;;;8.30;99.90;;;;;;5113988;28;20162;-79
2022/11/17 07:08:01;;;;;;;16.17;11.23;;;8.40;99.90;;;;;;5095802;28;20178;-79
2022/11/17 07:10:27;;;;;;;15.93;10.63;;;8.30;99.90;;;;;;5115242;28;20165;-83
2022/11/17 07:12:53;;;;;;;15.17;10.67;;;8.40;99.90;;;;;;5114567;28;20162;-80
2022/11/17 07:15:20;;;;;;;18.73;11.40;;;8.30;99.90;;;;;;5095343;28;20177;-81
2022/11/17 07:17:46;;;;;;;19.70;11.23;;;8.40;99.90;;;;;;5095296;28;20298;-79
2022/11/17 07:20:13;;;;;;;16.67;11.37;;;8.40;99.90;;;;;;5095510;28;20206;-81
2022/11/17 07:22:40;;;;;;;16.87;10.93;;;8.40;99.90;;;;;;5113467;28;20173;-79
2022/11/17 07:25:06;;;;;;;15.77;11.17;;;8.40;99.90;;;;;;5095388;28;20229;-78
2022/11/17 07:27:32;;;;;;;17.30;11.80;;;8.40;99.90;;;;;;5095251;28;20224;-82
2022/11/17 07:29:58;;;;;;;17.20;11.70;;;8.50;99.90;;;;;;5113479;28;20173;-80
2022/11/17 07:32:24;;;;;;;16.30;11.60;;;8.50;99.90;;;;;;5113053;28;20181;-80
2022/11/17 07:34:50;;;;;;;15.70;11.03;;;8.60;99.90;;;;;;5095251;28;20169;-81
2022/11/17 07:37:16;;;;;;;15.83;11.17;;;8.70;99.90;;;;;;5095499;28;20233;-81
2022/11/17 07:39:42;;;;;;;17.17;10.50;;;8.80;99.90;;;;;;5113934;28;20251;-81
2022/11/17 07:42:08;;;;;;;18.57;10.77;;;8.80;99.90;;;;;;5113381;28;20160;-81
2022/11/17 07:44:33;;;;;;;18.30;11.30;;;8.80;99.90;;;;;;5113242;28;20558;-79
2022/11/17 07:47:00;;;;;;;17.03;10.93;;;8.80;99.90;;;;;;5113474;28;20533;-81
2022/11/17 07:49:26;;;;;;;18.23;10.77;;;8.80;99.90;;;;;;5113267;28;20166;-81
2022/11/17 07:51:53;;;;;;;17.70;11.23;;;8.70;99.90;;;;;;5113408;28;20267;-79
2022/11/17 07:54:19;;;;;;;18.40;12.20;;;8.70;99.90;;;;;;5113207;28;20177;-81
2022/11/17 07:56:45;;;;;;;16.57;10.97;;;8.80;99.90;;;;;;5113560;28;20162;-80
2022/11/17 07:59:11;;;;;;;17.17;11.70;;;8.80;99.90;;;;;;5113250;28;20201;-80
2022/11/17 08:01:37;;;;;;;19.30;11.97;;;8.80;99.90;;;;;;5113108;28;20197;-79
2022/11/17 08:04:03;;;;;;;16.73;11.07;;;8.80;99.90;;;;;;5113030;28;20199;-80
2022/11/17 08:06:29;;;;;;;16.00;11.40;;;8.90;99.90;;;;;;5113354;28;20167;-81
2022/11/17 08:08:55;;;;;;;16.63;10.83;;;9.00;99.90;;;;;;5113490;28;20224;-80
2022/11/17 08:11:21;;;;;;;17.40;11.17;;;9.10;99.90;;;;;;5113026;28;20501;-81
2022/11/17 08:13:49;;;;;;;14.10;10.47;;;9.10;99.90;;;;;;5113154;28;20634;-79
2022/11/17 08:16:15;;;;;;;17.37;10.40;;;9.30;99.90;;;;;;5094588;28;20173;-78
2022/11/17 08:18:41;;;;;;;15.60;10.77;;;9.30;99.90;;;;;;5094922;28;20292;-80
2022/11/17 08:21:15;;;;;;;16.03;11.17;;;9.30;99.90;;;;;;5113705;28;20166;-79
2022/11/17 08:23:41;;;;;;;17.50;11.90;;;9.40;99.90;;;;;;5116007;28;20165;-80
2022/11/17 08:26:09;;;;;;;17.63;10.63;;;9.40;99.90;;;;;;5116873;28;20546;-80
2022/11/17 08:28:35;;;;;;;16.07;10.67;;;9.40;99.90;;;;;;5113776;28;20166;-80
2022/11/17 08:31:03;;;;;;;15.33;11.13;;;9.40;99.90;;;;;;5113458;28;20177;-80
2022/11/17 08:33:29;;;;;;;18.97;11.30;;;9.30;99.90;;;;;;5113047;28;20166;-80
2022/11/17 08:35:58;;;;;;;18.47;11.10;;;9.40;99.90;;;;;;5097501;28;20187;-80
2022/11/17 08:38:27;;;;;;;14.53;10.80;;;9.40;99.90;;;;;;5114138;28;20237;-80
2022/11/17 08:41:05;;;;;;;15.80;10.90;;;9.40;99.90;;;;;;5113086;28;20182;-81
2022/11/17 08:43:32;;;;;;;15.07;10.60;;;9.60;99.90;;;;;;5112872;28;20176;-81
2022/11/17 08:45:58;;;;;;;15.47;10.47;;;9.60;99.90;;;;;;5115222;28;20191;-80
2022/11/17 08:48:24;;;;;;;15.50;10.63;;;9.80;99.90;;;;;;5116861;28;20181;-80
2022/11/17 08:50:50;;;;;;;15.07;11.40;;;9.70;99.90;;;;;;5116690;28;20255;-82
2022/11/17 08:53:18;;;;;;;14.40;10.40;;;9.80;99.90;;;;;;5116508;28;20168;-80
2022/11/17 08:55:45;;;;;;;17.00;11.63;;;9.80;99.90;;;;;;5116282;28;20176;-80
2022/11/17 08:58:11;;;;;;;14.67;10.80;;;9.80;99.90;;;;;;5116147;28;20665;-80
2022/11/17 09:00:40;;;;;;;16.50;11.53;;;9.70;99.90;;;;;;5116209;28;20175;-81
2022/11/17 09:03:08;;;;;;;17.03;10.77;;;9.70;99.90;;;;;;5116082;28;20177;-79
2022/11/17 09:05:38;;;;;;;15.37;10.97;;;9.80;99.90;;;;;;5116173;28;20188;-81
2022/11/17 09:08:04;;;;;;;15.30;10.30;;;9.70;99.90;;;;;;5097873;28;20696;-80
2022/11/17 09:10:30;;;;;;;15.37;10.50;;;9.70;99.90;;;;;;5116046;28;20254;-79
2022/11/17 09:12:57;;;;;;;14.30;10.27;;;9.80;99.90;;;;;;5116010;28;20254;-80
2022/11/17 09:15:23;;;;;;;15.73;10.60;;;9.90;99.90;;;;;;5115944;28;20255;-78
2022/11/17 09:17:49;;;;;;;16.47;10.63;;;10.00;99.90;;;;;;5115777;28;20268;-79
2022/11/17 09:20:17;;;;;;;14.83;11.00;;;10.00;99.90;;;;;;5115894;28;20172;-79
2022/11/17 09:22:44;;;;;;;17.43;11.10;;;10.00;99.90;;;;;;5115828;28;20177;-80
2022/11/17 09:25:10;;;;;;;16.10;11.13;;;10.10;99.90;;;;;;5115708;28;20167;-79
2022/11/17 09:27:36;;;;;;;16.47;10.87;;;10.10;99.90;;;;;;5115625;28;20177;-79
2022/11/17 09:30:02;;;;;;;16.63;11.07;;;10.10;99.90;;;;;;5115691;28;20192;-80
2022/11/17 09:32:29;;;;;;;17.43;11.43;;;10.20;99.90;;;;;;5115471;28;20182;-81
2022/11/17 09:34:54;;;;;;;14.07;10.87;;;10.20;99.90;;;;;;5116116;28;20172;-80
2022/11/17 09:37:21;;;;;;;16.93;11.37;;;10.30;99.90;;;;;;5115502;28;20224;-80
2022/11/17 09:39:47;;;;;;;16.50;12.07;;;10.30;99.90;;;;;;5115457;28;20164;-78
2022/11/17 09:42:16;;;;;;;16.17;11.30;;;10.30;99.90;;;;;;5115479;28;20243;-79
2022/11/17 09:44:52;;;;;;;12.70;10.33;;;10.30;99.90;;;;;;5096928;28;20181;-80
2022/11/17 09:47:24;;;;;;;17.10;11.53;;;10.30;99.90;;;;;;5115240;28;20163;-78
2022/11/17 09:49:56;;;;;;;13.73;10.80;;;10.20;99.90;;;;;;5115308;28;20661;-81
2022/11/17 09:52:31;;;;;;;19.57;11.10;;;10.30;99.90;;;;;;5117876;28;20173;-80
2022/11/17 09:55:23;;;;;;;15.27;10.70;;;10.10;99.90;;;;;;5102806;28;20163;-79
2022/11/17 09:58:13;;;;;;;15.60;11.13;;;10.20;99.90;;;;;;5110575;28;20220;-81
2022/11/17 10:00:42;;;;;;;16.30;11.10;;;10.30;99.90;;;;;;5115604;28;20171;-79
2022/11/17 10:03:18;;;;;;;17.00;11.60;;;10.40;99.90;;;;;;5099382;28;20173;-79
2022/11/17 10:05:44;;;;;;;20.33;11.03;;;10.40;99.90;;;;;;5100542;28;20172;-79
2022/11/17 10:08:15;;;;;;;17.37;11.60;;;10.50;99.90;;;;;;5116136;28;20172;-79
2022/11/17 10:10:49;;;;;;;16.70;11.17;;;10.50;99.90;;;;;;5115014;28;20158;-80
2022/11/17 10:13:25;;;;;;;18.50;11.40;;;10.50;99.90;;;;;;5114868;28;20164;-79
2022/11/17 10:15:57;;;;;;;17.20;11.23;;;10.60;99.90;;;;;;5114790;28;20172;-80
2022/11/17 10:18:23;;;;;;;16.63;10.97;;;10.50;99.90;;;;;;5114720;28;20585;-80
2022/11/17 10:20:50;;;;;;;16.83;11.27;;;10.60;99.90;;;;;;5096500;28;20184;-81
2022/11/17 10:23:18;;;;;;;16.90;11.37;;;10.60;99.90;;;;;;5114711;28;20267;-79
2022/11/17 10:25:55;;;;;;;16.13;11.63;;;10.60;99.90;;;;;;5114693;28;20169;-81
2022/11/17 10:28:24;;;;;;;16.10;11.23;;;10.60;99.90;;;;;;5114712;28;20165;-79
2022/11/17 10:31:03;;;;;;;15.53;10.87;;;10.60;99.90;;;;;;5114664;28;20176;-81
2022/11/17 10:33:43;;;;;;;14.93;10.97;;;10.60;99.90;;;;;;5114464;28;20193;-79
2022/11/17 10:36:28;;;;;;;15.20;11.23;;;10.70;99.90;;;;;;5096075;28;20265;-80
2022/11/17 10:38:59;;;;;;;18.93;12.03;;;10.70;99.90;;;;;;5114182;28;20224;-79
2022/11/17 10:41:39;;;;;;;15.77;11.67;;;10.60;99.90;;;;;;5114412;28;20202;-80
2022/11/17 10:44:12;;;;;;;14.30;11.20;;;10.50;99.90;;;;;;5114339;28;20180;-80
2022/11/17 10:46:57;;;;;;;17.47;11.07;;;10.40;99.90;;;;;;5114104;28;20153;-81
2022/11/17 10:49:29;;;;;;;14.13;10.93;;;10.40;99.90;;;;;;5114331;28;20197;-79
2022/11/17 10:52:05;;;;;;;14.17;10.93;;;10.40;99.90;;;;;;5095929;28;20229;-80
2022/11/17 10:54:31;;;;;;;16.10;11.40;;;10.40;99.90;;;;;;5095839;28;20570;-81
2022/11/17 10:56:58;;;;;;;17.77;11.07;;;10.40;99.90;;;;;;5113987;28;20181;-81
2022/11/17 10:59:49;;;;;;;17.03;11.13;;;10.40;99.90;;;;;;5095791;28;20196;-79
2022/11/17 11:02:27;;;;;;;14.40;11.10;;;10.40;99.90;;;;;;5114113;28;20600;-78
2022/11/17 11:05:10;;;;;;;15.03;10.97;;;10.40;99.90;;;;;;5113805;28;20161;-78
2022/11/17 11:07:37;;;;;;;16.63;11.43;;;10.40;99.90;;;;;;5113296;28;20164;-81
2022/11/17 11:10:22;;;;;;;14.80;11.03;;;10.40;99.90;;;;;;5095523;28;20532;-80
2022/11/17 11:13:05;;;;;;;16.93;10.67;;;10.40;99.90;;;;;;5114536;28;20165;-79
2022/11/17 11:15:34;;;;;;;15.60;10.60;;;10.40;99.90;;;;;;5114251;28;20167;-80
2022/11/17 11:18:00;;;;;;;17.73;11.27;;;10.50;99.90;;;;;;5115526;28;20254;-78
2022/11/17 11:20:52;;;;;;;16.70;12.03;;;10.50;99.90;;;;;;5115667;28;20180;-80
2022/11/17 11:23:54;;;;;;;14.60;10.43;;;10.50;99.90;;;;;;5113708;28;20189;-81
2022/11/17 11:26:49;;;;;;;15.40;10.80;;;10.50;99.90;;;;;;5095647;28;20177;-79
2022/11/17 11:29:41;;;;;;;18.13;11.63;;;10.40;99.90;;;;;;5115493;28;20625;-81
2022/11/17 11:32:28;;;;;;;15.87;11.10;;;10.40;99.90;;;;;;5119176;28;20184;-82
2022/11/17 11:35:21;;;;;;;17.50;11.57;;;10.30;99.90;;;;;;5113974;28;20649;-80
2022/11/17 11:38:14;;;;;;;15.13;10.97;;;10.20;99.90;;;;;;5113171;28;20224;-81
2022/11/17 11:40:44;;;;;;;18.50;11.53;;;10.00;99.90;;;;;;5095068;28;20631;-79
2022/11/17 11:43:30;;;;;;;16.00;11.40;;;9.90;99.90;;;;;;5113375;28;20586;-80
2022/11/17 11:46:16;;;;;;;14.43;11.10;;;9.80;99.90;;;;;;5113327;28;20168;-80
2022/11/17 11:48:43;;;;;;;15.30;11.10;;;9.80;99.90;;;;;;5113162;28;20173;-80
2022/11/17 11:51:19;;;;;;;18.20;11.10;;;9.80;99.90;;;;;;5113338;28;20185;-81
2022/11/17 11:54:00;;;;;;;18.00;13.27;;;9.80;99.90;;;;;;5113423;28;20195;-83
2022/11/17 11:56:40;;;;;;;15.50;11.30;;;9.90;99.90;;;;;;5094914;28;20222;-79
2022/11/17 11:59:18;;;;;;;17.93;11.50;;;9.90;99.90;;;;;;5113198;28;20201;-80
2022/11/17 12:01:50;;;;;;;13.90;10.73;;;9.90;99.90;;;;;;5114021;28;20164;-79
2022/11/17 12:04:53;;;;;;;16.53;10.83;;;9.80;99.90;;;;;;5113257;28;20173;-79
2022/11/17 12:07:28;;;;;;;15.20;11.17;;;9.80;99.90;;;;;;5113199;28;20166;-80
2022/11/17 12:10:03;;;;;;;14.67;10.43;;;9.80;99.90;;;;;;5095117;28;20761;-78
2022/11/17 12:12:34;;;;;;;15.63;11.33;;;9.90;99.90;;;;;;5113051;28;20156;-80
2022/11/17 12:15:10;;;;;;;12.00;9.53;;;9.80;99.90;;;;;;5113387;28;20172;-80
2022/11/17 12:17:52;;;;;;;14.60;10.07;;;9.90;99.90;;;;;;5094660;28;20207;-81
2022/11/17 12:20:42;;;;;;;12.73;10.13;;;9.80;99.90;;;;;;5114587;28;20168;-82
2022/11/17 12:23:41;;;;;;;14.23;10.37;;;9.80;99.90;;;;;;5117201;28;20165;-82
2022/11/17 12:26:20;;;;;;;15.20;10.60;;;9.80;99.90;;;;;;5117199;28;20699;-80
2022/11/17 12:28:45;;;;;;;14.97;10.63;;;9.80;99.90;;;;;;5117170;28;20165;-80
2022/11/17 12:31:41;;;;;;;12.50;9.57;;;9.90;99.90;;;;;;5120130;28;20173;-82
2022/11/17 12:34:09;;;;;;;16.13;10.53;;;10.00;99.90;;;;;;5116799;28;20613;-81
2022/11/17 12:36:35;;;;;;;13.40;10.33;;;10.00;99.90;;;;;;5098322;28;20226;-81
2022/11/17 12:39:08;;;;;;;14.67;10.67;;;10.00;99.90;;;;;;5100128;28;20710;-80
2022/11/17 12:42:04;;;;;;;12.90;10.10;;;10.10;99.90;;;;;;5116596;28;20177;-81
2022/11/17 12:44:36;;;;;;;14.03;9.73;;;10.20;99.90;;;;;;5077775;28;20185;-79
2022/11/17 12:47:20;;;;;;;14.37;10.20;;;10.40;99.90;;;;;;5100051;28;20177;-79
2022/11/17 12:50:16;;;;;;;14.33;9.70;;;10.70;99.90;;;;;;5100179;28;20168;-80
2022/11/17 12:53:03;;;;;;;14.23;9.67;;;10.70;99.90;;;;;;5116265;28;20172;-82
2022/11/17 12:55:31;;;;;;;14.27;9.60;;;10.60;99.90;;;;;;5116288;28;20562;-80
2022/11/17 12:58:23;;;;;;;16.13;10.43;;;10.50;99.90;;;;;;5120038;28;20200;-82
2022/11/17 13:01:08;;;;;;;14.10;9.43;;;10.50;99.90;;;;;;5100442;28;20210;-79
2022/11/17 13:03:56;;;;;;;11.43;8.67;;;10.50;99.90;;;;;;5116214;28;20169;-79
2022/11/17 13:06:22;;;;;;;13.33;9.60;;;10.60;99.90;;;;;;5080266;28;20185;-80
2022/11/17 13:08:59;;;;;;;12.93;9.03;;;10.60;99.90;;;;;;5115923;28;20527;-80
2022/11/17 13:11:26;;;;;;;12.47;8.77;;;10.60;99.90;;;;;;5116042;28;20274;-79
2022/11/17 13:14:12;;;;;;;10.93;8.67;;;10.70;99.90;;;;;;5115957;28;20189;-80
2022/11/17 13:16:48;;;;;;;10.63;8.23;;;10.60;99.90;;;;;;5116094;28;20179;-79
2022/11/17 13:19:46;;;;;;;10.97;8.13;;;10.40;99.90;;;;;;5116042;28;20204;-79
2022/11/17 13:22:14;;;;;;;10.30;8.23;;;10.30;99.90;;;;;;5013401;28;20764;-80
2022/11/17 13:24:43;;;;;;;10.63;8.37;;;10.30;99.90;;;;;;5013470;28;20212;-80
2022/11/17 13:27:35;;;;;;;14.07;8.67;;;10.40;99.90;;;;;;5014178;28;20185;-81
2022/11/17 13:30:19;;;;;;;11.47;7.97;;;10.40;99.90;;;;;;5010502;28;20220;-82